createdAt,value
2018-08-19T00:00:45.686Z,960.03
2018-08-19T00:01:45.682Z,960.08
2018-08-19T00:02:45.678Z,960.05
2018-08-19T00:03:45.675Z,960.09
2018-08-19T00:04:45.667Z,960.08
2018-08-19T00:05:45.663Z,960.07
2018-08-19T00:06:45.658Z,960.1
2018-08-19T00:07:45.652Z,960.09
2018-08-19T00:08:45.649Z,960.09
2018-08-19T00:09:45.644Z,960.07
2018-08-19T00:10:45.639Z,960.1
2018-08-19T00:11:45.634Z,960.07
2018-08-19T00:12:45.628Z,960.03
2018-08-19T00:13:45.624Z,960.07
2018-08-19T00:14:45.620Z,960.08
2018-08-19T00:15:45.615Z,960
2018-08-19T00:16:45.611Z,959.99
2018-08-19T00:17:45.607Z,960.03
2018-08-19T00:18:45.603Z,960
2018-08-19T00:19:45.641Z,959.98
2018-08-19T00:20:45.591Z,959.96
2018-08-19T00:21:45.643Z,959.98
2018-08-19T00:22:45.580Z,959.99
2018-08-19T00:23:45.576Z,960.01
2018-08-19T00:24:45.572Z,960
2018-08-19T00:25:45.567Z,959.99
2018-08-19T00:26:45.561Z,960
2018-08-19T00:27:45.557Z,959.98
2018-08-19T00:28:45.553Z,959.98
2018-08-19T00:29:45.547Z,959.99
2018-08-19T00:30:45.544Z,959.98
2018-08-19T00:31:45.538Z,959.99
2018-08-19T00:32:45.532Z,959.95
2018-08-19T00:33:45.528Z,959.99
2018-08-19T00:34:45.524Z,959.98
2018-08-19T00:35:45.518Z,960
2018-08-19T00:36:45.513Z,960.01
2018-08-19T00:37:45.508Z,960.02
2018-08-19T00:38:45.504Z,960.03
2018-08-19T00:39:45.501Z,960
2018-08-19T00:40:45.494Z,960.02
2018-08-19T00:41:45.489Z,959.98
2018-08-19T00:42:45.484Z,959.98
2018-08-19T00:43:45.481Z,959.99
2018-08-19T00:44:45.476Z,960
2018-08-19T00:45:45.470Z,959.97
2018-08-19T00:46:45.465Z,959.98
2018-08-19T00:47:45.462Z,959.99
2018-08-19T00:48:45.455Z,960.02
2018-08-19T00:49:45.450Z,960.01
2018-08-19T00:50:45.446Z,960.05
2018-08-19T00:51:45.440Z,960.03
2018-08-19T00:52:45.435Z,960.07
2018-08-19T00:53:45.430Z,960.04
2018-08-19T00:54:45.426Z,960.02
2018-08-19T00:55:45.420Z,960.07
2018-08-19T00:56:45.415Z,960.01
2018-08-19T00:57:45.411Z,960.07
2018-08-19T00:58:45.406Z,960.07
2018-08-19T00:59:45.403Z,960.04
2018-08-19T01:00:45.397Z,960.05
2018-08-19T01:01:45.392Z,960.05
2018-08-19T01:02:45.388Z,960.05
2018-08-19T01:03:45.381Z,960.07
2018-08-19T01:04:45.378Z,960.08
2018-08-19T01:05:45.372Z,960.09
2018-08-19T01:06:45.367Z,960.1
2018-08-19T01:07:45.361Z,960.12
2018-08-19T01:08:45.357Z,960.11
2018-08-19T01:09:45.356Z,960.12
2018-08-19T01:10:45.346Z,960.15
2018-08-19T01:11:45.342Z,960.1
2018-08-19T01:12:45.341Z,960.13
2018-08-19T01:13:45.332Z,960.08
2018-08-19T01:14:45.327Z,960.11
2018-08-19T01:15:45.323Z,960.12
2018-08-19T01:16:45.319Z,960.12
2018-08-19T01:17:45.311Z,960.1
2018-08-19T01:18:45.308Z,960.15
2018-08-19T01:19:45.306Z,960.1
2018-08-19T01:20:45.296Z,960.08
2018-08-19T01:21:45.291Z,960.07
2018-08-19T01:22:45.288Z,960.11
2018-08-19T01:23:45.282Z,960.11
2018-08-19T01:24:45.282Z,960.09
2018-08-19T01:25:45.272Z,960.09
2018-08-19T01:26:45.266Z,960.09
2018-08-19T01:27:45.261Z,960.05
2018-08-19T01:28:45.257Z,960.06
2018-08-19T01:29:45.252Z,960.06
2018-08-19T01:30:45.247Z,960.05
2018-08-19T01:31:45.241Z,960.04
2018-08-19T01:32:45.235Z,960.01
2018-08-19T01:33:45.231Z,960.04
2018-08-19T01:34:45.242Z,960.03
2018-08-19T01:35:45.221Z,960.06
2018-08-19T01:36:45.214Z,960.05
2018-08-19T01:37:45.210Z,960.05
2018-08-19T01:38:45.205Z,960.05
2018-08-19T01:39:45.200Z,960.03
2018-08-19T01:40:45.199Z,960.04
2018-08-19T01:41:45.192Z,960.05
2018-08-19T01:42:45.187Z,960.02
2018-08-19T01:43:45.181Z,960.01
2018-08-19T01:44:45.177Z,960.03
2018-08-19T01:45:45.170Z,960.02
2018-08-19T01:46:45.163Z,959.96
2018-08-19T01:47:45.158Z,960
2018-08-19T01:48:45.154Z,960.03
2018-08-19T01:49:45.149Z,960.04
2018-08-19T01:50:45.155Z,960.06
2018-08-19T01:51:45.139Z,960.06
2018-08-19T01:52:45.138Z,960.01
2018-08-19T01:53:45.128Z,960.08
2018-08-19T01:54:45.122Z,960.03
2018-08-19T01:55:45.117Z,960.05
2018-08-19T01:56:45.113Z,960.03
2018-08-19T01:57:45.107Z,960.01
2018-08-19T01:58:45.102Z,960.01
2018-08-19T01:59:45.096Z,959.98
2018-08-19T02:00:45.091Z,960
2018-08-19T02:01:45.088Z,959.97
2018-08-19T02:02:45.080Z,959.98
2018-08-19T02:03:45.079Z,959.97
2018-08-19T02:04:45.071Z,960.03
2018-08-19T02:05:45.064Z,960.03
2018-08-19T02:06:45.060Z,960
2018-08-19T02:07:45.058Z,960.04
2018-08-19T02:08:45.048Z,960.04
2018-08-19T02:09:45.043Z,960.06
2018-08-19T02:10:45.039Z,960
2018-08-19T02:11:45.033Z,960.02
2018-08-19T02:12:45.027Z,960.04
2018-08-19T02:13:45.025Z,960.04
2018-08-19T02:14:45.018Z,960.01
2018-08-19T02:15:45.011Z,960.04
2018-08-19T02:16:45.007Z,960
2018-08-19T02:17:45.001Z,960.02
2018-08-19T02:18:44.996Z,960.02
2018-08-19T02:19:44.990Z,960.04
2018-08-19T02:20:45.130Z,960.04
2018-08-19T02:21:44.980Z,960.02
2018-08-19T02:22:44.977Z,960.05
2018-08-19T02:23:44.970Z,960.01
2018-08-19T02:24:44.964Z,960.04
2018-08-19T02:25:44.961Z,960.01
2018-08-19T02:26:44.956Z,960.01
2018-08-19T02:27:44.947Z,960.04
2018-08-19T02:28:44.943Z,960.07
2018-08-19T02:29:44.938Z,960.1
2018-08-19T02:30:44.931Z,960.11
2018-08-19T02:31:44.926Z,960.1
2018-08-19T02:32:44.921Z,960.12
2018-08-19T02:33:44.956Z,960.08
2018-08-19T02:34:44.919Z,960.1
2018-08-19T02:35:44.909Z,960.1
2018-08-19T02:36:44.900Z,960.08
2018-08-19T02:37:44.894Z,960.07
2018-08-19T02:38:44.890Z,960.12
2018-08-19T02:39:44.884Z,960.12
2018-08-19T02:40:44.879Z,960.08
2018-08-19T02:41:44.872Z,960.09
2018-08-19T02:42:44.866Z,960.08
2018-08-19T02:43:44.865Z,960.1
2018-08-19T02:44:44.856Z,960.08
2018-08-19T02:45:44.851Z,960.05
2018-08-19T02:46:44.844Z,960.02
2018-08-19T02:47:44.840Z,960.04
2018-08-19T02:48:44.833Z,960.02
2018-08-19T02:49:44.828Z,960.01
2018-08-19T02:50:44.823Z,960.01
2018-08-19T02:51:44.818Z,960.01
2018-08-19T02:52:44.811Z,960
2018-08-19T02:53:44.805Z,960.02
2018-08-19T02:54:44.801Z,960.04
2018-08-19T02:55:44.798Z,959.99
2018-08-19T02:56:44.797Z,959.99
2018-08-19T02:57:44.783Z,960.01
2018-08-19T02:58:44.777Z,960.02
2018-08-19T02:59:44.772Z,959.95
2018-08-19T03:00:44.771Z,959.99
2018-08-19T03:01:44.760Z,959.99
2018-08-19T03:02:44.755Z,959.93
2018-08-19T03:03:44.752Z,959.95
2018-08-19T03:04:44.744Z,959.97
2018-08-19T03:05:44.738Z,959.95
2018-08-19T03:06:44.731Z,959.91
2018-08-19T03:07:44.726Z,959.88
2018-08-19T03:08:44.725Z,959.86
2018-08-19T03:09:44.716Z,959.83
2018-08-19T03:10:44.710Z,959.83
2018-08-19T03:11:44.706Z,959.85
2018-08-19T03:12:44.714Z,959.86
2018-08-19T03:13:44.694Z,959.87
2018-08-19T03:14:44.687Z,959.86
2018-08-19T03:15:44.681Z,959.89
2018-08-19T03:16:44.677Z,959.9
2018-08-19T03:17:44.670Z,959.91
2018-08-19T03:18:44.664Z,959.89
2018-08-19T03:19:44.659Z,959.85
2018-08-19T03:20:44.654Z,959.86
2018-08-19T03:21:44.648Z,959.9
2018-08-19T03:22:44.644Z,959.84
2018-08-19T03:23:44.636Z,959.87
2018-08-19T03:24:44.631Z,959.86
2018-08-19T03:25:44.629Z,959.86
2018-08-19T03:26:44.619Z,959.83
2018-08-19T03:27:44.615Z,959.82
2018-08-19T03:28:44.608Z,959.85
2018-08-19T03:29:44.606Z,959.88
2018-08-19T03:30:44.597Z,959.83
2018-08-19T03:31:44.598Z,959.82
2018-08-19T03:32:44.586Z,959.84
2018-08-19T03:33:44.581Z,959.82
2018-08-19T03:34:44.577Z,959.81
2018-08-19T03:35:44.571Z,959.81
2018-08-19T03:36:44.564Z,959.82
2018-08-19T03:37:44.558Z,959.84
2018-08-19T03:38:44.554Z,959.8
2018-08-19T03:39:44.547Z,959.85
2018-08-19T03:40:44.542Z,959.84
2018-08-19T03:41:44.545Z,959.82
2018-08-19T03:42:44.531Z,959.81
2018-08-19T03:43:44.525Z,959.82
2018-08-19T03:44:44.519Z,959.83
2018-08-19T03:45:44.513Z,959.79
2018-08-19T03:46:44.509Z,959.79
2018-08-19T03:47:44.503Z,959.75
2018-08-19T03:48:44.497Z,959.77
2018-08-19T03:49:44.492Z,959.73
2018-08-19T03:50:44.485Z,959.74
2018-08-19T03:51:44.482Z,959.71
2018-08-19T03:52:44.475Z,959.73
2018-08-19T03:53:44.469Z,959.7
2018-08-19T03:54:44.467Z,959.71
2018-08-19T03:55:44.457Z,959.69
2018-08-19T03:56:44.455Z,959.67
2018-08-19T03:57:44.448Z,959.69
2018-08-19T03:58:44.441Z,959.69
2018-08-19T03:59:44.437Z,959.69
2018-08-19T04:00:44.434Z,959.68
2018-08-19T04:01:44.434Z,959.69
2018-08-19T04:02:44.421Z,959.66
2018-08-19T04:03:44.412Z,959.65
2018-08-19T04:04:44.409Z,959.71
2018-08-19T04:05:44.401Z,959.68
2018-08-19T04:06:44.397Z,959.65
2018-08-19T04:07:44.391Z,959.69
2018-08-19T04:08:44.385Z,959.67
2018-08-19T04:09:44.385Z,959.67
2018-08-19T04:10:44.373Z,959.68
2018-08-19T04:11:44.368Z,959.65
2018-08-19T04:12:44.363Z,959.65
2018-08-19T04:13:44.357Z,959.66
2018-08-19T04:14:44.351Z,959.65
2018-08-19T04:15:44.346Z,959.65
2018-08-19T04:16:44.340Z,959.68
2018-08-19T04:17:44.334Z,959.65
2018-08-19T04:18:44.331Z,959.64
2018-08-19T04:19:44.323Z,959.66
2018-08-19T04:20:44.318Z,959.64
2018-08-19T04:21:44.313Z,959.67
2018-08-19T04:22:44.306Z,959.66
2018-08-19T04:23:44.300Z,959.71
2018-08-19T04:24:44.294Z,959.65
2018-08-19T04:25:44.289Z,959.67
2018-08-19T04:26:44.290Z,959.64
2018-08-19T04:27:44.277Z,959.62
2018-08-19T04:28:44.273Z,959.64
2018-08-19T04:29:44.268Z,959.62
2018-08-19T04:30:44.261Z,959.61
2018-08-19T04:31:44.255Z,959.61
2018-08-19T04:32:44.249Z,959.63
2018-08-19T04:33:44.244Z,959.59
2018-08-19T04:34:44.238Z,959.66
2018-08-19T04:35:44.232Z,959.62
2018-08-19T04:36:44.228Z,959.62
2018-08-19T04:37:44.222Z,959.62
2018-08-19T04:38:44.219Z,959.68
2018-08-19T04:39:44.211Z,959.63
2018-08-19T04:40:44.207Z,959.61
2018-08-19T04:41:44.199Z,959.61
2018-08-19T04:42:44.197Z,959.65
2018-08-19T04:43:44.189Z,959.62
2018-08-19T04:44:44.184Z,959.61
2018-08-19T04:45:44.178Z,959.6
2018-08-19T04:46:44.172Z,959.57
2018-08-19T04:47:44.170Z,959.57
2018-08-19T04:48:44.162Z,959.57
2018-08-19T04:49:44.156Z,959.55
2018-08-19T04:50:44.150Z,959.64
2018-08-19T04:51:44.148Z,959.57
2018-08-19T04:52:44.139Z,959.57
2018-08-19T04:53:44.134Z,959.57
2018-08-19T04:54:44.129Z,959.59
2018-08-19T04:55:44.124Z,959.58
2018-08-19T04:56:44.119Z,959.62
2018-08-19T04:57:44.113Z,959.59
2018-08-19T04:58:44.108Z,959.6
2018-08-19T04:59:44.107Z,959.63
2018-08-19T05:00:44.099Z,959.6
2018-08-19T05:01:44.094Z,959.61
2018-08-19T05:02:44.090Z,959.63
2018-08-19T05:03:44.082Z,959.67
2018-08-19T05:04:44.080Z,959.62
2018-08-19T05:05:44.074Z,959.66
2018-08-19T05:06:44.069Z,959.65
2018-08-19T05:07:44.062Z,959.68
2018-08-19T05:08:44.059Z,959.66
2018-08-19T05:09:44.058Z,959.65
2018-08-19T05:10:44.048Z,959.67
2018-08-19T05:11:44.043Z,959.68
2018-08-19T05:12:44.041Z,959.69
2018-08-19T05:13:44.037Z,959.74
2018-08-19T05:14:44.029Z,959.71
2018-08-19T05:15:44.027Z,959.73
2018-08-19T05:16:44.020Z,959.77
2018-08-19T05:17:44.015Z,959.74
2018-08-19T05:18:44.011Z,959.74
2018-08-19T05:19:44.005Z,959.78
2018-08-19T05:20:44.001Z,959.82
2018-08-19T05:21:43.997Z,959.77
2018-08-19T05:22:43.992Z,959.81
2018-08-19T05:23:43.992Z,959.82
2018-08-19T05:24:43.983Z,959.87
2018-08-19T05:25:43.980Z,959.86
2018-08-19T05:26:43.979Z,959.88
2018-08-19T05:27:43.970Z,959.92
2018-08-19T05:28:43.966Z,959.94
2018-08-19T05:29:43.978Z,959.96
2018-08-19T05:30:43.957Z,959.96
2018-08-19T05:31:43.956Z,960
2018-08-19T05:32:43.948Z,960.02
2018-08-19T05:33:43.943Z,960
2018-08-19T05:34:43.939Z,960.06
2018-08-19T05:35:43.937Z,960.05
2018-08-19T05:36:43.930Z,960.05
2018-08-19T05:37:43.927Z,960.09
2018-08-19T05:38:43.923Z,960.08
2018-08-19T05:39:43.919Z,960.09
2018-08-19T05:40:43.914Z,960.09
2018-08-19T05:41:43.911Z,960.11
2018-08-19T05:42:43.906Z,960.12
2018-08-19T05:43:43.905Z,960.09
2018-08-19T05:44:43.900Z,960.11
2018-08-19T05:45:43.894Z,960.08
2018-08-19T05:46:43.898Z,960.15
2018-08-19T05:47:43.887Z,960.11
2018-08-19T05:48:43.886Z,960.12
2018-08-19T05:49:43.879Z,960.14
2018-08-19T05:50:43.876Z,960.13
2018-08-19T05:51:43.873Z,960.1
2018-08-19T05:52:43.867Z,960.15
2018-08-19T05:53:43.865Z,960.19
2018-08-19T05:54:43.859Z,960.17
2018-08-19T05:55:43.969Z,960.15
2018-08-19T05:56:43.853Z,960.18
2018-08-19T05:57:43.849Z,960.17
2018-08-19T05:58:43.845Z,960.17
2018-08-19T05:59:43.842Z,960.17
2018-08-19T06:00:43.839Z,960.17
2018-08-19T06:01:43.839Z,960.13
2018-08-19T06:02:43.834Z,960.16
2018-08-19T06:03:43.829Z,960.18
2018-08-19T06:04:43.824Z,960.17
2018-08-19T06:05:43.820Z,960.22
2018-08-19T06:06:43.817Z,960.19
2018-08-19T06:07:43.881Z,960.19
2018-08-19T06:08:43.811Z,960.19
2018-08-19T06:09:43.807Z,960.18
2018-08-19T06:10:43.804Z,960.21
2018-08-19T06:11:43.800Z,960.18
2018-08-19T06:12:43.805Z,960.22
2018-08-19T06:13:43.796Z,960.21
2018-08-19T06:14:43.791Z,960.22
2018-08-19T06:15:43.840Z,960.19
2018-08-19T06:16:43.784Z,960.17
2018-08-19T06:17:43.781Z,960.2
2018-08-19T06:18:43.779Z,960.2
2018-08-19T06:19:43.774Z,960.22
2018-08-19T06:20:43.770Z,960.22
2018-08-19T06:21:43.769Z,960.17
2018-08-19T06:22:43.777Z,960.19
2018-08-19T06:23:43.763Z,960.22
2018-08-19T06:24:43.840Z,960.18
2018-08-19T06:25:43.758Z,960.22
2018-08-19T06:26:43.753Z,960.24
2018-08-19T06:27:43.752Z,960.23
2018-08-19T06:28:43.748Z,960.28
2018-08-19T06:29:43.745Z,960.23
2018-08-19T06:30:43.742Z,960.28
2018-08-19T06:31:43.739Z,960.26
2018-08-19T06:32:43.736Z,960.24
2018-08-19T06:33:43.735Z,960.23
2018-08-19T06:34:43.871Z,960.22
2018-08-19T06:35:43.729Z,960.25
2018-08-19T06:36:43.725Z,960.21
2018-08-19T06:37:43.723Z,960.21
2018-08-19T06:38:43.721Z,960.24
2018-08-19T06:39:43.718Z,960.25
2018-08-19T06:40:43.715Z,960.25
2018-08-19T06:41:43.712Z,960.28
2018-08-19T06:42:43.709Z,960.32
2018-08-19T06:43:43.707Z,960.3
2018-08-19T06:44:43.705Z,960.32
2018-08-19T06:45:43.702Z,960.28
2018-08-19T06:46:43.700Z,960.37
2018-08-19T06:47:43.699Z,960.36
2018-08-19T06:48:43.701Z,960.35
2018-08-19T06:49:43.692Z,960.34
2018-08-19T06:50:43.690Z,960.37
2018-08-19T06:51:43.688Z,960.38
2018-08-19T06:52:43.685Z,960.33
2018-08-19T06:53:43.682Z,960.34
2018-08-19T06:54:43.686Z,960.32
2018-08-19T06:55:43.680Z,960.35
2018-08-19T06:56:43.677Z,960.33
2018-08-19T06:57:43.674Z,960.37
2018-08-19T06:58:43.673Z,960.43
2018-08-19T06:59:43.671Z,960.42
2018-08-19T07:00:43.669Z,960.46
2018-08-19T07:01:43.668Z,960.43
2018-08-19T07:02:43.668Z,960.4
2018-08-19T07:03:43.806Z,960.47
2018-08-19T07:04:43.665Z,960.46
2018-08-19T07:05:43.664Z,960.47
2018-08-19T07:06:43.665Z,960.47
2018-08-19T07:07:43.666Z,960.51
2018-08-19T07:08:43.664Z,960.49
2018-08-19T07:09:43.665Z,960.45
2018-08-19T07:10:43.665Z,960.49
2018-08-19T07:11:43.666Z,960.47
2018-08-19T07:12:43.744Z,960.47
2018-08-19T07:13:43.669Z,960.5
2018-08-19T07:14:43.671Z,960.52
2018-08-19T07:15:43.674Z,960.48
2018-08-19T07:16:43.675Z,960.47
2018-08-19T07:17:43.676Z,960.54
2018-08-19T07:18:43.784Z,960.53
2018-08-19T07:19:43.682Z,960.5
2018-08-19T07:20:43.684Z,960.49
2018-08-19T07:21:43.698Z,960.52
2018-08-19T07:22:43.690Z,960.54
2018-08-19T07:23:43.726Z,960.61
2018-08-19T07:24:43.699Z,960.61
2018-08-19T07:25:43.701Z,960.66
2018-08-19T07:26:43.703Z,960.78
2018-08-19T07:27:43.707Z,960.86
2018-08-19T07:28:43.712Z,960.96
2018-08-19T07:29:43.782Z,961.15
2018-08-19T07:30:43.720Z,961.21
2018-08-19T07:31:43.725Z,961.18
2018-08-19T07:32:43.733Z,961.07
2018-08-19T07:33:43.733Z,960.69
2018-08-19T07:34:43.736Z,960.34
2018-08-19T07:35:43.745Z,960.3
2018-08-19T07:36:43.807Z,960.28
2018-08-19T07:37:43.750Z,960.29
2018-08-19T07:38:43.756Z,960.26
2018-08-19T07:39:43.759Z,960.3
2018-08-19T07:40:43.763Z,960.28
2018-08-19T07:41:43.766Z,960.28
2018-08-19T07:42:43.772Z,960.26
2018-08-19T07:43:43.808Z,960.3
2018-08-19T07:44:43.779Z,960.29
2018-08-19T07:45:43.787Z,960.31
2018-08-19T07:46:43.789Z,960.27
2018-08-19T07:47:43.793Z,960.26
2018-08-19T07:48:43.798Z,960.28
2018-08-19T07:49:43.802Z,960.27
2018-08-19T07:50:43.804Z,960.25
2018-08-19T07:51:43.871Z,960.25
2018-08-19T07:52:43.813Z,960.25
2018-08-19T07:53:43.818Z,960.25
2018-08-19T07:54:43.821Z,960.28
2018-08-19T07:55:43.826Z,960.26
2018-08-19T07:56:43.827Z,960.29
2018-08-19T07:57:43.831Z,960.27
2018-08-19T07:58:43.844Z,960.28
2018-08-19T07:59:43.839Z,960.3
2018-08-19T08:00:43.845Z,960.3
2018-08-19T08:01:43.846Z,960.3
2018-08-19T08:02:43.847Z,960.26
2018-08-19T08:03:43.850Z,960.25
2018-08-19T08:04:43.853Z,960.25
2018-08-19T08:05:43.857Z,960.27
2018-08-19T08:06:43.859Z,960.27
2018-08-19T08:07:43.864Z,960.3
2018-08-19T08:08:43.866Z,960.26
2018-08-19T08:09:43.870Z,960.28
2018-08-19T08:10:43.872Z,960.29
2018-08-19T08:11:43.875Z,960.27
2018-08-19T08:12:43.877Z,960.26
2018-08-19T08:13:43.944Z,960.26
2018-08-19T08:14:43.884Z,960.26
2018-08-19T08:15:43.893Z,960.29
2018-08-19T08:16:43.889Z,960.28
2018-08-19T08:17:43.891Z,960.28
2018-08-19T08:18:43.892Z,960.26
2018-08-19T08:19:43.897Z,960.25
2018-08-19T08:20:43.903Z,960.25
2018-08-19T08:21:44.008Z,960.23
2018-08-19T08:22:43.906Z,960.23
2018-08-19T08:23:43.905Z,960.22
2018-08-19T08:24:43.907Z,960.24
2018-08-19T08:25:43.910Z,960.25
2018-08-19T08:26:43.912Z,960.25
2018-08-19T08:27:43.916Z,960.27
2018-08-19T08:28:43.917Z,960.22
2018-08-19T08:29:43.920Z,960.25
2018-08-19T08:30:43.923Z,960.22
2018-08-19T08:31:43.925Z,960.2
2018-08-19T08:32:43.927Z,960.22
2018-08-19T08:33:43.930Z,960.19
2018-08-19T08:34:43.932Z,960.24
2018-08-19T08:35:43.934Z,960.26
2018-08-19T08:36:43.936Z,960.19
2018-08-19T08:37:43.939Z,960.19
2018-08-19T08:38:43.942Z,960.2
2018-08-19T08:39:43.944Z,960.19
2018-08-19T08:40:44.008Z,960.23
2018-08-19T08:41:43.948Z,960.2
2018-08-19T08:42:43.952Z,960.14
2018-08-19T08:43:43.953Z,960.15
2018-08-19T08:44:43.976Z,960.15
2018-08-19T08:45:43.958Z,960.17
2018-08-19T08:46:43.960Z,960.15
2018-08-19T08:47:44.138Z,960.15
2018-08-19T08:48:43.966Z,960.19
2018-08-19T08:49:43.968Z,960.2
2018-08-19T08:50:43.970Z,960.17
2018-08-19T08:51:43.973Z,960.19
2018-08-19T08:52:43.976Z,960.18
2018-08-19T08:53:43.978Z,960.2
2018-08-19T08:54:43.981Z,960.2
2018-08-19T08:55:43.990Z,960.13
2018-08-19T08:56:43.988Z,960.12
2018-08-19T08:57:43.988Z,960.1
2018-08-19T08:58:43.995Z,960.05
2018-08-19T08:59:43.994Z,960.11
2018-08-19T09:00:43.996Z,960.08
2018-08-19T09:01:43.998Z,960.07
2018-08-19T09:02:44.001Z,960.08
2018-08-19T09:03:44.004Z,960.1
2018-08-19T09:04:44.007Z,960.06
2018-08-19T09:05:44.010Z,960.05
2018-08-19T09:06:44.013Z,960.06
2018-08-19T09:07:44.016Z,960.08
2018-08-19T09:08:44.017Z,960.08
2018-08-19T09:09:44.022Z,960.04
2018-08-19T09:10:44.022Z,960.1
2018-08-19T09:11:44.027Z,960.07
2018-08-19T09:12:44.028Z,960.04
2018-08-19T09:13:44.034Z,960.03
2018-08-19T09:14:44.034Z,960.03
2018-08-19T09:15:44.036Z,960
2018-08-19T09:16:44.041Z,960.01
2018-08-19T09:17:44.044Z,960
2018-08-19T09:18:44.045Z,959.97
2018-08-19T09:19:44.047Z,959.97
2018-08-19T09:20:44.050Z,959.97
2018-08-19T09:21:44.054Z,959.98
2018-08-19T09:22:44.058Z,959.95
2018-08-19T09:23:44.059Z,959.93
2018-08-19T09:24:44.062Z,959.92
2018-08-19T09:25:44.066Z,959.89
2018-08-19T09:26:44.067Z,959.91
2018-08-19T09:27:44.071Z,959.87
2018-08-19T09:28:44.074Z,959.88
2018-08-19T09:29:44.078Z,959.88
2018-08-19T09:30:44.079Z,959.86
2018-08-19T09:31:44.082Z,959.85
2018-08-19T09:32:44.087Z,959.83
2018-08-19T09:33:44.090Z,959.82
2018-08-19T09:34:44.093Z,959.84
2018-08-19T09:35:44.101Z,959.82
2018-08-19T09:36:44.098Z,959.82
2018-08-19T09:37:44.101Z,959.77
2018-08-19T09:38:44.104Z,959.77
2018-08-19T09:39:44.108Z,959.77
2018-08-19T09:40:44.208Z,959.78
2018-08-19T09:41:44.113Z,959.8
2018-08-19T09:42:44.117Z,959.78
2018-08-19T09:43:44.121Z,959.74
2018-08-19T09:44:44.130Z,959.76
2018-08-19T09:45:44.127Z,959.76
2018-08-19T09:46:44.131Z,959.77
2018-08-19T09:47:44.213Z,959.76
2018-08-19T09:48:44.137Z,959.76
2018-08-19T09:49:44.139Z,959.75
2018-08-19T09:50:44.143Z,959.69
2018-08-19T09:51:44.148Z,959.72
2018-08-19T09:52:44.149Z,959.71
2018-08-19T09:53:44.153Z,959.69
2018-08-19T09:54:44.158Z,959.74
2018-08-19T09:55:44.161Z,959.7
2018-08-19T09:56:44.164Z,959.73
2018-08-19T09:57:44.169Z,959.65
2018-08-19T09:58:44.172Z,959.68
2018-08-19T09:59:44.176Z,959.69
2018-08-19T10:00:44.180Z,959.67
2018-08-19T10:01:44.183Z,959.67
2018-08-19T10:02:44.188Z,959.63
2018-08-19T10:03:44.190Z,959.66
2018-08-19T10:04:44.196Z,959.68
2018-08-19T10:05:44.199Z,959.66
2018-08-19T10:06:44.203Z,959.64
2018-08-19T10:07:44.281Z,959.61
2018-08-19T10:08:44.210Z,959.65
2018-08-19T10:09:44.214Z,959.64
2018-08-19T10:10:44.217Z,959.64
2018-08-19T10:11:44.226Z,959.61
2018-08-19T10:12:44.225Z,959.6
2018-08-19T10:13:44.319Z,959.57
2018-08-19T10:14:44.233Z,959.57
2018-08-19T10:15:44.236Z,959.58
2018-08-19T10:16:44.243Z,959.53
2018-08-19T10:17:44.254Z,959.5
2018-08-19T10:18:44.249Z,959.54
2018-08-19T10:19:44.254Z,959.5
2018-08-19T10:20:44.256Z,959.47
2018-08-19T10:21:44.260Z,959.48
2018-08-19T10:22:44.264Z,959.44
2018-08-19T10:23:44.268Z,959.43
2018-08-19T10:24:44.271Z,959.45
2018-08-19T10:25:44.275Z,959.44
2018-08-19T10:26:44.279Z,959.4
2018-08-19T10:27:44.283Z,959.43
2018-08-19T10:28:44.287Z,959.4
2018-08-19T10:29:44.292Z,959.4
2018-08-19T10:30:44.295Z,959.37
2018-08-19T10:31:44.299Z,959.31
2018-08-19T10:32:44.304Z,959.34
2018-08-19T10:33:44.307Z,959.33
2018-08-19T10:34:44.313Z,959.35
2018-08-19T10:35:44.315Z,959.36
2018-08-19T10:36:44.318Z,959.3
2018-08-19T10:37:44.322Z,959.29
2018-08-19T10:38:44.327Z,959.26
2018-08-19T10:39:44.329Z,959.27
2018-08-19T10:40:44.334Z,959.26
2018-08-19T10:41:44.339Z,959.25
2018-08-19T10:42:44.343Z,959.31
2018-08-19T10:43:44.347Z,959.31
2018-08-19T10:44:44.350Z,959.3
2018-08-19T10:45:44.355Z,959.31
2018-08-19T10:46:44.359Z,959.3
2018-08-19T10:47:44.363Z,959.27
2018-08-19T10:48:44.367Z,959.23
2018-08-19T10:49:44.370Z,959.18
2018-08-19T10:50:44.386Z,959.21
2018-08-19T10:51:44.378Z,959.2
2018-08-19T10:52:44.383Z,959.14
2018-08-19T10:53:44.387Z,959.19
2018-08-19T10:54:44.389Z,959.16
2018-08-19T10:55:44.402Z,959.14
2018-08-19T10:56:44.399Z,959.19
2018-08-19T10:57:44.402Z,959.17
2018-08-19T10:58:44.406Z,959.15
2018-08-19T10:59:44.446Z,959.16
2018-08-19T11:00:44.413Z,959.17
2018-08-19T11:01:44.420Z,959.16
2018-08-19T11:02:44.426Z,959.14
2018-08-19T11:03:44.426Z,959.13
2018-08-19T11:04:44.430Z,959.13
2018-08-19T11:05:44.432Z,959.16
2018-08-19T11:06:44.446Z,959.11
2018-08-19T11:07:44.442Z,959.08
2018-08-19T11:08:44.448Z,959.03
2018-08-19T11:09:44.450Z,959.04
2018-08-19T11:10:44.454Z,959.07
2018-08-19T11:11:44.457Z,958.99
2018-08-19T11:12:44.461Z,959.03
2018-08-19T11:13:44.463Z,959
2018-08-19T11:14:44.469Z,959
2018-08-19T11:15:44.473Z,958.96
2018-08-19T11:16:44.477Z,958.95
2018-08-19T11:17:44.481Z,958.92
2018-08-19T11:18:44.484Z,958.95
2018-08-19T11:19:44.489Z,958.9
2018-08-19T11:20:44.491Z,958.91
2018-08-19T11:21:44.499Z,958.87
2018-08-19T11:22:44.503Z,958.91
2018-08-19T11:23:44.503Z,958.91
2018-08-19T11:24:44.509Z,958.88
2018-08-19T11:25:44.514Z,958.88
2018-08-19T11:26:44.521Z,958.89
2018-08-19T11:27:44.520Z,958.9
2018-08-19T11:28:44.529Z,958.87
2018-08-19T11:29:44.529Z,958.86
2018-08-19T11:30:44.542Z,958.85
2018-08-19T11:31:44.537Z,958.84
2018-08-19T11:32:44.541Z,958.79
2018-08-19T11:33:44.552Z,958.79
2018-08-19T11:34:44.557Z,958.76
2018-08-19T11:35:44.559Z,958.77
2018-08-19T11:36:44.561Z,958.78
2018-08-19T11:37:44.567Z,958.75
2018-08-19T11:38:44.567Z,958.77
2018-08-19T11:39:44.577Z,958.8
2018-08-19T11:40:44.577Z,958.77
2018-08-19T11:41:44.589Z,958.74
2018-08-19T11:42:44.586Z,958.75
2018-08-19T11:43:44.590Z,958.69
2018-08-19T11:44:44.598Z,958.7
2018-08-19T11:45:44.599Z,958.67
2018-08-19T11:46:44.604Z,958.61
2018-08-19T11:47:44.609Z,958.62
2018-08-19T11:48:44.671Z,958.62
2018-08-19T11:49:44.623Z,958.64
2018-08-19T11:50:44.623Z,958.65
2018-08-19T11:51:44.632Z,958.68
2018-08-19T11:52:44.634Z,958.64
2018-08-19T11:53:44.638Z,958.64
2018-08-19T11:54:44.642Z,958.64
2018-08-19T11:55:44.648Z,958.64
2018-08-19T11:56:44.651Z,958.66
2018-08-19T11:57:44.658Z,958.59
2018-08-19T11:58:44.665Z,958.6
2018-08-19T11:59:44.669Z,958.57
2018-08-19T12:00:44.672Z,958.59
2018-08-19T12:01:44.677Z,958.58
2018-08-19T12:02:44.683Z,958.56
2018-08-19T12:03:44.690Z,958.57
2018-08-19T12:04:44.696Z,958.53
2018-08-19T12:05:44.699Z,958.55
2018-08-19T12:06:44.705Z,958.56
2018-08-19T12:07:44.708Z,958.54
2018-08-19T12:08:44.715Z,958.51
2018-08-19T12:09:44.826Z,958.51
2018-08-19T12:10:44.726Z,958.56
2018-08-19T12:11:44.730Z,958.53
2018-08-19T12:12:44.735Z,958.54
2018-08-19T12:13:44.742Z,958.54
2018-08-19T12:14:44.746Z,958.56
2018-08-19T12:15:44.751Z,958.51
2018-08-19T12:16:44.757Z,958.51
2018-08-19T12:17:44.763Z,958.5
2018-08-19T12:18:44.768Z,958.51
2018-08-19T12:19:44.773Z,958.51
2018-08-19T12:20:44.780Z,958.49
2018-08-19T12:21:44.784Z,958.44
2018-08-19T12:22:44.790Z,958.46
2018-08-19T12:23:44.796Z,958.46
2018-08-19T12:24:44.802Z,958.44
2018-08-19T12:25:44.806Z,958.41
2018-08-19T12:26:44.811Z,958.42
2018-08-19T12:27:44.882Z,958.38
2018-08-19T12:28:44.823Z,958.4
2018-08-19T12:29:44.835Z,958.35
2018-08-19T12:30:44.835Z,958.34
2018-08-19T12:31:44.840Z,958.36
2018-08-19T12:32:44.862Z,958.35